createdAt,value
2022-12-26T00:01:28.256Z,98745.00
2022-12-26T00:03:57.985Z,98741.53
2022-12-26T00:06:29.069Z,98736.22
2022-12-26T00:08:58.175Z,98750.13
2022-12-26T00:11:27.537Z,98736.78
2022-12-26T00:13:58.479Z,98730.34
2022-12-26T00:16:27.330Z,98745.59
2022-12-26T00:18:57.507Z,98741.75
2022-12-26T00:21:29.093Z,98739.28
2022-12-26T00:23:59.028Z,98736.69
2022-12-26T00:26:29.896Z,98726.03
2022-12-26T00:28:59.238Z,98731.28
2022-12-26T00:31:29.509Z,98719.78
2022-12-26T00:33:59.139Z,98720.53
2022-12-26T00:36:29.756Z,98725.47
2022-12-26T00:38:58.694Z,98727.00
2022-12-26T00:41:26.997Z,98730.41
2022-12-26T00:43:56.205Z,98722.50
2022-12-26T00:46:28.472Z,98711.94
2022-12-26T00:48:58.389Z,98716.41
2022-12-26T00:51:26.705Z,98702.53
2022-12-26T00:53:54.904Z,98712.16
2022-12-26T00:56:23.344Z,98714.78
2022-12-26T00:58:52.243Z,98711.22
2022-12-26T01:01:22.341Z,98716.41
2022-12-26T01:03:52.273Z,98716.91
2022-12-26T01:06:21.764Z,98711.53
2022-12-26T01:08:50.294Z,98720.38
2022-12-26T01:11:39.364Z,98744.03
2022-12-26T01:14:09.215Z,98746.66
2022-12-26T01:16:38.625Z,98745.59
2022-12-26T01:19:07.347Z,98747.97
2022-12-26T01:21:37.173Z,98752.22
2022-12-26T01:24:06.406Z,98750.38
2022-12-26T01:26:36.000Z,98759.00
2022-12-26T01:29:04.223Z,98767.78
2022-12-26T01:31:32.366Z,98769.56
2022-12-26T01:34:01.265Z,98778.28
2022-12-26T01:36:29.427Z,98782.97
2022-12-26T01:38:58.934Z,98789.22
2022-12-26T01:41:27.977Z,98799.81
2022-12-26T01:43:58.188Z,98800.75
2022-12-26T01:46:32.551Z,98825.16
2022-12-26T01:49:03.577Z,98817.38
2022-12-26T01:51:37.945Z,98837.78
2022-12-26T01:54:40.130Z,98846.09
2022-12-26T01:57:01.430Z,98844.81
2022-12-26T01:59:33.697Z,98853.13
2022-12-26T02:02:02.575Z,98844.94
2022-12-26T02:04:52.891Z,98846.06
2022-12-26T02:07:21.309Z,98862.97
2022-12-26T02:09:50.880Z,98864.38
2022-12-26T02:12:37.067Z,98853.44
2022-12-26T02:15:09.906Z,98865.00
2022-12-26T02:17:39.182Z,98874.97
2022-12-26T02:20:17.828Z,98897.06
2022-12-26T02:23:09.635Z,98913.06
2022-12-26T02:26:09.540Z,98928.94
2022-12-26T02:28:57.730Z,98939.41
2022-12-26T02:31:37.746Z,98950.66
2022-12-26T02:34:14.988Z,98971.53
2022-12-26T02:36:58.185Z,98965.50
2022-12-26T02:39:44.763Z,98975.22
2022-12-26T02:42:27.661Z,99000.59
2022-12-26T02:45:20.981Z,99005.84
2022-12-26T02:47:57.820Z,99008.75
2022-12-26T02:50:51.618Z,99040.22
2022-12-26T02:53:44.679Z,99063.97
2022-12-26T02:56:41.348Z,99067.66
2022-12-26T02:59:56.099Z,99080.16
2022-12-26T03:02:47.248Z,99090.09
2022-12-26T03:05:40.524Z,99114.13
2022-12-26T03:08:37.208Z,99125.06
2022-12-26T03:11:23.240Z,99128.22
2022-12-26T03:13:53.288Z,99139.97
2022-12-26T03:16:42.135Z,99138.41
2022-12-26T03:19:13.438Z,99154.63
2022-12-26T03:21:46.959Z,99164.81
2022-12-26T03:24:18.288Z,99179.38
2022-12-26T03:26:52.511Z,99183.28
2022-12-26T03:29:41.109Z,99202.09
2022-12-26T03:32:11.770Z,99203.28
2022-12-26T03:34:43.475Z,99213.13
2022-12-26T03:37:48.910Z,99224.72
2022-12-26T03:40:52.250Z,99224.25
2022-12-26T03:43:45.782Z,99228.13
2022-12-26T03:46:41.618Z,99238.69
2022-12-26T03:49:34.859Z,99242.34
2022-12-26T03:52:24.533Z,99256.25
2022-12-26T03:55:16.750Z,99253.78
2022-12-26T03:58:08.881Z,99266.94
2022-12-26T04:00:56.367Z,99275.66
2022-12-26T04:03:44.158Z,99281.00
2022-12-26T04:06:36.882Z,99300.19
2022-12-26T04:09:28.617Z,99298.56
2022-12-26T04:12:17.832Z,99315.06
2022-12-26T04:15:09.044Z,99329.03
2022-12-26T04:17:58.634Z,99330.00
2022-12-26T04:20:32.300Z,99337.91
2022-12-26T04:23:23.610Z,99336.28
2022-12-26T04:26:16.663Z,99346.63
2022-12-26T04:29:03.779Z,99352.72
2022-12-26T04:31:54.827Z,99356.22
2022-12-26T04:34:46.536Z,99359.66
2022-12-26T04:37:39.018Z,99356.19
2022-12-26T04:40:30.021Z,99363.13
2022-12-26T04:43:49.868Z,99377.91
2022-12-26T04:46:06.776Z,99381.31
2022-12-26T04:48:59.394Z,99390.78
2022-12-26T04:51:27.769Z,99389.13
2022-12-26T04:53:59.246Z,99395.22
2022-12-26T04:56:27.559Z,99404.84
2022-12-26T04:58:55.676Z,99414.47
2022-12-26T05:01:42.749Z,99420.59
2022-12-26T05:04:31.745Z,99424.19
2022-12-26T05:07:18.825Z,99426.06
2022-12-26T05:09:49.627Z,99431.41
2022-12-26T05:12:17.861Z,99430.66
2022-12-26T05:14:52.260Z,99440.25
2022-12-26T05:17:39.420Z,99436.00
2022-12-26T05:20:25.488Z,99442.06
2022-12-26T05:23:11.568Z,99448.16
2022-12-26T05:26:01.149Z,99461.19
2022-12-26T05:28:47.148Z,99460.25
2022-12-26T05:31:17.727Z,99468.94
2022-12-26T05:34:04.974Z,99471.66
2022-12-26T05:36:37.288Z,99466.38
2022-12-26T05:39:06.080Z,99459.38
2022-12-26T05:41:34.212Z,99475.81
2022-12-26T05:44:02.543Z,99470.72
2022-12-26T05:46:30.791Z,99488.19
2022-12-26T05:49:00.367Z,99489.13
2022-12-26T05:51:28.907Z,99492.72
2022-12-26T05:53:57.060Z,99494.53
2022-12-26T05:56:25.687Z,99511.97
2022-12-26T05:58:56.429Z,99515.50
2022-12-26T06:01:26.002Z,99522.41
2022-12-26T06:03:56.998Z,99524.19
2022-12-26T06:06:27.882Z,99525.09
2022-12-26T06:08:57.875Z,99527.72
2022-12-26T06:11:27.256Z,99524.19
2022-12-26T06:13:56.022Z,99524.16
2022-12-26T06:21:08.730Z,99539.44
2022-12-26T06:23:38.973Z,99548.00
2022-12-26T06:26:09.678Z,99536.72
2022-12-26T06:28:40.168Z,99552.34
2022-12-26T06:31:10.673Z,99561.03
2022-12-26T06:33:39.192Z,99571.50
2022-12-26T06:36:09.572Z,99570.72
2022-12-26T06:38:39.371Z,99569.84
2022-12-26T06:41:08.546Z,99588.09
2022-12-26T06:43:37.004Z,99596.81
2022-12-26T06:46:07.526Z,99607.28
2022-12-26T06:48:39.618Z,99609.13
2022-12-26T06:51:10.994Z,99609.16
2022-12-26T06:53:41.073Z,99612.66
2022-12-26T06:56:11.020Z,99617.81
2022-12-26T06:58:39.951Z,99613.50
2022-12-26T07:01:09.146Z,99612.66
2022-12-26T07:03:37.441Z,99623.06
2022-12-26T07:06:07.397Z,99623.88
2022-12-26T07:08:35.981Z,99616.09
2022-12-26T07:11:05.580Z,99618.59
2022-12-26T07:13:33.751Z,99620.34
2022-12-26T07:16:01.931Z,99624.69
2022-12-26T07:18:30.207Z,99634.16
2022-12-26T07:20:58.340Z,99641.09
2022-12-26T07:23:26.582Z,99646.38
2022-12-26T07:25:54.741Z,99643.88
2022-12-26T07:28:24.292Z,99651.75
2022-12-26T07:30:52.410Z,99656.13
2022-12-26T07:33:20.659Z,99665.72
2022-12-26T07:35:49.421Z,99671.84
2022-12-26T07:38:18.723Z,99668.44
2022-12-26T07:40:46.920Z,99677.16
2022-12-26T07:43:15.149Z,99678.91
2022-12-26T07:45:45.930Z,99685.84
2022-12-26T07:48:14.408Z,99687.63
2022-12-26T07:50:45.556Z,99685.91
2022-12-26T07:53:13.861Z,99695.38
2022-12-26T07:55:42.072Z,99698.88
2022-12-26T07:58:10.388Z,99712.75
2022-12-26T08:00:38.522Z,99721.38
2022-12-26T08:03:10.515Z,99718.84
2022-12-26T08:05:39.891Z,99726.63
2022-12-26T08:08:07.992Z,99730.06
2022-12-26T08:10:36.243Z,99733.59
2022-12-26T08:13:04.343Z,99744.84
2022-12-26T08:15:32.551Z,99746.56
2022-12-26T08:18:00.619Z,99749.16
2022-12-26T08:20:30.208Z,99764.66
2022-12-26T08:25:26.421Z,99762.75
2022-12-26T08:27:54.388Z,99773.13
2022-12-26T08:30:22.583Z,99775.69
2022-12-26T08:32:52.119Z,99780.03
2022-12-26T08:35:20.352Z,99785.25
2022-12-26T08:37:49.813Z,99782.69
2022-12-26T08:40:26.844Z,99782.63
2022-12-26T08:43:44.987Z,99786.06
2022-12-26T08:46:01.809Z,99799.88
2022-12-26T08:48:30.662Z,99807.69
2022-12-26T08:51:00.476Z,99816.31
2022-12-26T08:53:32.935Z,99817.22
2022-12-26T08:56:01.378Z,99815.47
2022-12-26T08:58:29.884Z,99819.81
2022-12-26T09:01:07.551Z,99831.94
2022-12-26T09:03:35.970Z,99831.09
2022-12-26T09:06:06.530Z,99840.59
2022-12-26T09:08:38.109Z,99836.25
2022-12-26T09:11:07.805Z,99850.06
2022-12-26T09:13:36.868Z,99855.25
2022-12-26T09:16:07.659Z,99852.59
2022-12-26T09:18:36.168Z,99848.19
2022-12-26T09:21:06.679Z,99852.47
2022-12-26T09:23:37.207Z,99863.63
2022-12-26T09:26:07.065Z,99864.47
2022-12-26T09:28:35.930Z,99868.72
2022-12-26T09:31:05.734Z,99880.84
2022-12-26T09:33:37.591Z,99879.94
2022-12-26T09:36:12.527Z,99882.50
2022-12-26T09:38:44.073Z,99885.09
2022-12-26T09:41:30.556Z,99895.47
2022-12-26T09:44:05.573Z,99893.69
2022-12-26T09:46:37.786Z,99901.41
2022-12-26T09:49:11.668Z,99914.31
2022-12-26T09:51:44.340Z,99903.84
2022-12-26T09:54:20.495Z,99913.28
2022-12-26T09:57:09.898Z,99915.00
2022-12-26T09:59:47.448Z,99919.38
2022-12-26T10:02:19.748Z,99924.56
2022-12-26T10:04:48.973Z,99934.16
2022-12-26T10:07:23.939Z,99932.44
2022-12-26T10:10:02.785Z,99929.00
2022-12-26T10:12:39.563Z,99938.47
2022-12-26T10:15:25.211Z,99931.31
2022-12-26T10:18:01.224Z,99935.28
2022-12-26T10:20:37.659Z,99928.13
2022-12-26T10:23:22.921Z,99924.50
2022-12-26T10:25:57.060Z,99931.41
2022-12-26T10:28:33.298Z,99931.47
2022-12-26T10:31:05.950Z,99935.00
2022-12-26T10:33:39.660Z,99930.75
2022-12-26T10:36:16.369Z,99941.28
2022-12-26T10:38:48.020Z,99939.56
2022-12-26T10:41:24.254Z,99946.38
2022-12-26T10:43:52.967Z,99934.84
2022-12-26T10:46:40.083Z,99940.75
2022-12-26T10:49:11.950Z,99948.47
2022-12-26T10:51:40.388Z,99949.28
2022-12-26T10:54:16.797Z,99944.88
2022-12-26T10:56:48.331Z,99946.50
2022-12-26T10:59:19.699Z,99942.06
2022-12-26T11:01:48.874Z,99943.69
2022-12-26T11:07:12.669Z,99945.09
2022-12-26T11:09:42.727Z,99950.22
2022-12-26T11:12:22.024Z,99961.44
2022-12-26T11:14:50.470Z,99958.78
2022-12-26T11:17:27.955Z,99964.88
2022-12-26T11:20:23.892Z,99963.19
2022-12-26T11:22:52.443Z,99952.81
2022-12-26T11:25:23.351Z,99954.53
2022-12-26T11:27:55.130Z,99949.34
2022-12-26T11:30:32.403Z,99958.13
2022-12-26T11:33:14.915Z,99958.97
2022-12-26T11:35:55.304Z,99966.78
2022-12-26T11:38:45.224Z,99969.41
2022-12-26T11:41:34.553Z,99966.78
2022-12-26T11:44:14.319Z,99971.91
2022-12-26T11:46:45.631Z,99978.88
2022-12-26T11:49:35.232Z,99966.72
2022-12-26T11:52:24.516Z,99979.78
2022-12-26T11:54:53.112Z,99978.06
2022-12-26T11:57:23.772Z,99978.03
2022-12-26T11:59:54.410Z,99977.97
2022-12-26T12:02:27.313Z,99992.66
2022-12-26T12:04:59.880Z,99981.28
2022-12-26T12:07:58.128Z,99980.38
2022-12-26T12:10:48.787Z,99972.50
2022-12-26T12:13:27.252Z,99975.06
2022-12-26T12:16:05.248Z,99982.03
2022-12-26T12:18:45.199Z,99977.59
2022-12-26T12:21:22.031Z,99979.31
2022-12-26T12:41:56.830Z,99970.91
2022-12-26T12:44:30.453Z,99967.56
2022-12-26T12:47:07.464Z,99976.28
2022-12-26T12:49:45.651Z,99959.88
2022-12-26T12:52:28.321Z,99959.13
2022-12-26T12:55:20.004Z,99969.59
2022-12-26T12:57:54.025Z,99967.00
2022-12-26T13:00:24.320Z,99966.19
2022-12-26T13:02:58.120Z,99962.78
2022-12-26T13:05:30.600Z,99964.53
2022-12-26T13:08:04.923Z,99967.16
2022-12-26T13:10:35.603Z,99952.34
2022-12-26T13:13:12.915Z,99961.03
2022-12-26T13:20:30.163Z,99962.72
2022-12-26T13:23:22.799Z,99954.94
2022-12-26T13:26:04.866Z,99969.75
2022-12-26T13:28:41.230Z,99962.91
2022-12-26T13:31:09.568Z,99961.16
2022-12-26T13:33:37.910Z,99966.38
2022-12-26T13:36:06.832Z,99970.75
2022-12-26T13:39:12.134Z,99964.53
2022-12-26T13:42:04.669Z,99961.00
2022-12-26T13:44:34.209Z,99959.22
2022-12-26T13:47:02.526Z,99955.78
2022-12-26T13:49:39.764Z,99954.88
2022-12-26T13:52:34.286Z,99953.13
2022-12-26T13:55:20.879Z,99967.00
2022-12-26T13:58:19.452Z,99956.56
2022-12-26T14:00:51.051Z,99957.47
2022-12-26T14:03:47.073Z,99955.78
2022-12-26T14:06:28.320Z,99961.03
2022-12-26T14:09:13.060Z,99966.25
2022-12-26T14:11:52.681Z,99963.63
2022-12-26T14:14:32.137Z,99976.66
2022-12-26T14:17:14.086Z,99985.38
2022-12-26T14:19:52.354Z,99987.13
2022-12-26T14:22:28.815Z,99996.72
2022-12-26T14:25:10.404Z,100000.09
2022-12-26T14:27:45.978Z,100011.47
2022-12-26T14:30:36.340Z,100009.78
2022-12-26T14:33:24.167Z,100012.44
2022-12-26T14:36:03.782Z,100013.38
2022-12-26T14:38:45.315Z,100020.31
2022-12-26T14:41:35.845Z,100022.03
2022-12-26T14:44:36.228Z,100027.25
2022-12-26T14:47:06.357Z,100023.88
2022-12-26T14:49:42.848Z,100036.13
2022-12-26T14:52:37.581Z,100034.41
2022-12-26T14:55:43.089Z,100036.22
2022-12-26T14:58:38.798Z,100038.75
2022-12-26T15:01:41.078Z,100043.13
2022-12-26T15:04:23.666Z,100043.16
2022-12-26T15:07:20.780Z,100050.06
2022-12-26T15:10:13.911Z,100042.13
2022-12-26T15:13:15.775Z,100043.66
2022-12-26T15:16:03.876Z,100044.38
2022-12-26T15:19:02.611Z,100046.06
2022-12-26T15:22:00.666Z,100042.81
2022-12-26T15:28:15.850Z,100049.34
2022-12-26T15:31:10.420Z,100056.44
2022-12-26T15:33:41.641Z,100054.88
2022-12-26T15:36:21.353Z,100061.13
2022-12-26T15:38:57.089Z,100067.38
2022-12-26T15:41:37.146Z,100070.97
2022-12-26T15:44:20.006Z,100069.34
2022-12-26T15:46:57.098Z,100073.81
2022-12-26T15:49:38.248Z,100067.84
2022-12-26T15:52:21.260Z,100068.72
2022-12-26T15:55:05.801Z,100067.00
2022-12-26T15:57:46.939Z,100070.44
2022-12-26T16:00:18.876Z,100080.75
2022-12-26T16:02:56.511Z,100075.44
2022-12-26T16:05:35.956Z,100072.72
2022-12-26T16:08:20.618Z,100077.97
2022-12-26T16:10:55.581Z,100091.06
2022-12-26T16:13:25.706Z,100088.56
2022-12-26T16:15:58.335Z,100093.81
2022-12-26T16:18:30.828Z,100103.41
2022-12-26T16:21:16.440Z,100106.91
2022-12-26T16:23:46.809Z,100109.53
2022-12-26T16:26:20.489Z,100116.56
2022-12-26T16:28:50.150Z,100123.50
2022-12-26T16:31:21.853Z,100123.53
2022-12-26T16:33:52.950Z,100127.88
2022-12-26T16:36:23.424Z,100129.69
2022-12-26T16:38:52.529Z,100129.78
2022-12-26T16:41:23.146Z,100133.31
2022-12-26T16:43:54.738Z,100131.63
2022-12-26T16:46:26.612Z,100130.81
2022-12-26T16:48:58.201Z,100132.59
2022-12-26T16:51:40.667Z,100138.72
2022-12-26T16:54:29.124Z,100135.28
2022-12-26T16:57:04.750Z,100136.16
2022-12-26T16:59:41.876Z,100145.72
2022-12-26T17:02:19.163Z,100143.97
2022-12-26T17:04:58.280Z,100145.75
2022-12-26T17:07:27.608Z,100154.44
2022-12-26T17:09:57.889Z,100150.09
2022-12-26T17:12:29.110Z,100156.22
2022-12-26T17:15:00.506Z,100147.53
2022-12-26T17:17:32.156Z,100142.34
2022-12-26T17:20:38.874Z,100148.44
2022-12-26T17:23:44.451Z,100157.97
2022-12-26T17:26:19.703Z,100160.59
2022-12-26T17:28:47.921Z,100170.94
2022-12-26T17:31:24.728Z,100163.16
2022-12-26T17:33:56.995Z,100168.34
2022-12-26T17:37:17.804Z,100172.66
2022-12-26T17:39:22.348Z,100168.34
2022-12-26T17:41:53.020Z,100171.81
2022-12-26T17:44:41.404Z,100163.16
2022-12-26T17:47:18.802Z,100166.66
2022-12-26T17:49:47.613Z,100164.94
2022-12-26T17:52:18.915Z,100165.81
2022-12-26T17:54:49.098Z,100169.28
2022-12-26T17:57:20.850Z,100156.22
2022-12-26T17:59:50.610Z,100160.59
2022-12-26T18:02:21.229Z,100159.72
2022-12-26T18:04:50.111Z,100164.00
2022-12-26T18:07:28.728Z,100171.78
2022-12-26T18:09:59.149Z,100168.28
2022-12-26T18:12:27.306Z,100167.41
2022-12-26T18:15:01.352Z,100167.34
2022-12-26T18:17:34.331Z,100170.00
2022-12-26T18:20:02.875Z,100170.91
2022-12-26T18:22:31.046Z,100163.13
2022-12-26T18:24:59.269Z,100156.22
2022-12-26T18:27:31.297Z,100164.94
2022-12-26T18:29:59.871Z,100163.19
2022-12-26T18:32:30.117Z,100160.59
2022-12-26T18:35:00.644Z,100160.59
2022-12-26T18:37:30.871Z,100176.19
2022-12-26T18:39:59.155Z,100167.47
2022-12-26T18:42:27.438Z,100166.56
2022-12-26T18:44:55.991Z,100167.38
2022-12-26T18:47:24.226Z,100163.88
2022-12-26T18:49:52.510Z,100162.94
2022-12-26T18:52:22.021Z,100154.25
2022-12-26T18:54:50.359Z,100166.31
2022-12-26T18:57:21.327Z,100174.94
2022-12-26T18:59:49.726Z,100175.75
2022-12-26T19:02:20.358Z,100185.28
2022-12-26T19:04:49.587Z,100178.31
2022-12-26T19:07:20.329Z,100180.00
2022-12-26T19:09:55.062Z,100178.28
2022-12-26T19:12:24.501Z,100186.94
2022-12-26T19:14:53.043Z,100180.75
2022-12-26T19:17:21.214Z,100180.78
2022-12-26T19:19:49.399Z,100179.91
2022-12-26T19:22:17.647Z,100175.63
2022-12-26T19:24:46.735Z,100186.91
2022-12-26T19:27:16.260Z,100185.19
2022-12-26T19:29:44.452Z,100190.44
2022-12-26T19:32:12.709Z,100199.13
2022-12-26T19:34:40.884Z,100206.00
2022-12-26T19:37:09.228Z,100211.19
2022-12-26T19:39:37.328Z,100208.53
2022-12-26T19:42:05.589Z,100216.38
2022-12-26T19:44:35.097Z,100215.50
2022-12-26T19:47:10.958Z,100220.72
2022-12-26T19:49:40.696Z,100225.03
2022-12-26T19:52:08.940Z,100225.88
2022-12-26T19:54:37.277Z,100224.97
2022-12-26T19:57:05.624Z,100228.44
2022-12-26T19:59:35.433Z,100233.66
2022-12-26T20:02:03.908Z,100231.88
2022-12-26T20:04:32.404Z,100229.28
2022-12-26T20:07:01.379Z,100244.00
2022-12-26T20:09:29.848Z,100244.91
2022-12-26T20:11:58.747Z,100234.53
2022-12-26T20:14:28.919Z,100244.09
2022-12-26T20:17:05.473Z,100258.03
2022-12-26T20:19:36.197Z,100272.78
2022-12-26T20:22:04.840Z,100269.34
2022-12-26T20:24:33.064Z,100271.94
2022-12-26T20:27:01.253Z,100277.97
2022-12-26T20:29:29.550Z,100276.25
2022-12-26T20:31:59.170Z,100279.72
2022-12-26T20:34:27.462Z,100291.88
2022-12-26T20:36:56.399Z,100291.00
2022-12-26T20:39:25.656Z,100291.00
2022-12-26T20:41:54.006Z,100299.72
2022-12-26T20:44:22.267Z,100298.00
2022-12-26T20:46:50.546Z,100311.88
2022-12-26T20:49:20.012Z,100315.34
2022-12-26T20:51:48.220Z,100320.56
2022-12-26T20:54:17.539Z,100328.38
2022-12-26T20:56:46.708Z,100325.78
2022-12-26T20:59:14.967Z,100318.03
2022-12-26T21:01:43.756Z,100328.41
2022-12-26T21:04:18.788Z,100328.44
2022-12-26T21:06:50.395Z,100328.50
2022-12-26T21:09:18.784Z,100336.31
2022-12-26T21:11:47.121Z,100338.03
2022-12-26T21:14:17.393Z,100345.00
2022-12-26T21:16:49.120Z,100340.66
2022-12-26T21:19:18.135Z,100338.03
2022-12-26T21:21:49.610Z,100341.50
2022-12-26T21:24:20.333Z,100345.00
2022-12-26T21:26:49.206Z,100354.53
2022-12-26T21:29:19.847Z,100360.63
2022-12-26T21:31:49.039Z,100362.38
2022-12-26T21:34:19.334Z,100361.50
2022-12-26T21:37:03.235Z,100360.63
2022-12-26T21:39:32.168Z,100362.38
2022-12-26T21:42:00.469Z,100368.47
2022-12-26T21:44:30.424Z,100365.88
2022-12-26T21:46:58.736Z,100374.53
2022-12-26T21:49:27.227Z,100382.34
2022-12-26T21:51:56.787Z,100387.53
2022-12-26T21:54:48.792Z,100387.53
2022-12-26T21:57:18.117Z,100381.47
2022-12-26T22:00:03.871Z,100383.22
2022-12-26T22:02:52.163Z,100384.06
2022-12-26T22:05:21.905Z,100391.03
2022-12-26T22:07:53.844Z,100387.56
2022-12-26T22:10:39.538Z,100391.88
2022-12-26T22:13:09.946Z,100404.88
2022-12-26T22:16:01.915Z,100399.69
2022-12-26T22:18:34.673Z,100397.94
2022-12-26T22:21:08.853Z,100405.72
2022-12-26T22:23:42.834Z,100395.31
2022-12-26T22:26:14.553Z,100403.94
2022-12-26T22:28:44.672Z,100406.56
2022-12-26T22:31:19.903Z,100417.78
2022-12-26T22:33:48.187Z,100411.75
2022-12-26T22:36:16.353Z,100412.59
2022-12-26T22:38:45.918Z,100408.28
2022-12-26T22:41:14.139Z,100415.19
2022-12-26T22:43:43.347Z,100409.13
2022-12-26T22:46:11.974Z,100413.47
2022-12-26T22:48:40.745Z,100418.69
2022-12-26T22:51:09.257Z,100413.50
2022-12-26T22:53:37.439Z,100414.38
2022-12-26T22:56:07.717Z,100413.50
2022-12-26T22:58:36.075Z,100416.97
2022-12-26T23:01:04.605Z,100415.22
2022-12-26T23:03:32.886Z,100424.75
2022-12-26T23:06:01.357Z,100412.63
2022-12-26T23:08:29.913Z,100416.94
2022-12-26T23:10:59.708Z,100419.56
2022-12-26T23:13:29.736Z,100430.78
2022-12-26T23:16:04.706Z,100430.78
2022-12-26T23:18:55.308Z,100425.59
2022-12-26T23:21:45.885Z,100423.88
2022-12-26T23:24:17.504Z,100439.47
2022-12-26T23:26:47.773Z,100438.59
2022-12-26T23:29:38.288Z,100439.44
2022-12-26T23:32:07.516Z,100443.75
2022-12-26T23:34:36.591Z,100451.56
2022-12-26T23:37:04.959Z,100464.56
2022-12-26T23:39:33.140Z,100462.84
2022-12-26T23:42:01.378Z,100450.72
2022-12-26T23:44:32.576Z,100449.03
2022-12-26T23:47:00.822Z,100448.19
2022-12-26T23:49:29.047Z,100454.22
2022-12-26T23:51:57.307Z,100454.22
2022-12-26T23:54:25.575Z,100446.44
2022-12-26T23:56:54.075Z,100451.63
2022-12-26T23:59:22.423Z,100453.34
